Latest Weather Observations for East Sale Airport

IDV60801

Issued at 10:42 am EST Wednesday 28 September 2022 (issued every 10 minutes, with the page automatically refreshed every 10 minutes)

About weather observations | Map of weather stations | Latest weather observations for VIC | Other Formats
Station Details ID: 085314 Name: EAST SALE AIRPORT Lat: -38.10 Lon: 147.14 Height: 5.3 m
Data from the previous 72 hours. | See also: Recent months at East Sale Airport
Date/Time
EST
Temp
°C
App
Temp
°C
Dew
Point
°C
Rel
Hum
%
Delta-T
°C
Wind Press
QNH
hPa
Press
MSL
hPa
Rain since
9am
mm
Dir  Spd
km/h
Gust
km/h
Spd
kts
Gust
kts
28/10:30am 15.0 10.7 12.0 82 1.6 SSE 26 33 14 18 1017.9 1017.9 0.0
28/10:00am 14.7 10.6 12.6 87 1.1 SSE 26 33 14 18 1018.0 1018.0 0.0
28/09:30am 14.3 11.3 12.7 90 0.9 SSE 20 28 11 15 1017.9 1017.9 0.0
28/09:00am 14.1 11.2 13.0 93 0.6 S 20 28 11 15 1017.7 1017.7 1.4
28/08:30am 13.3 9.5 12.5 95 0.4 S 24 35 13 19 1017.2 1017.2 1.4
28/08:12am 13.3 10.4 12.8 97 0.3 S 20 28 11 15 1017.2 1017.2 1.4
28/08:00am 13.0 9.6 12.5 97 0.3 S 22 32 12 17 1017.0 1017.0 1.4
28/07:34am 12.8 9.4 12.5 98 0.2 S 22 30 12 16 1016.8 1016.8 1.0
28/07:30am 12.8 9.4 12.5 98 0.2 S 22 30 12 16 1016.7 1016.7 1.0
28/07:00am 12.9 10.5 12.6 98 0.2 S 17 22 9 12 1016.3 1016.3 0.6
28/06:30am 12.6 10.1 12.4 99 0.1 SSE 17 22 9 12 1016.0 1016.0 0.6
28/06:04am 12.8 11.1 12.5 98 0.2 S 13 15 7 8 1015.6 1015.6 0.2
28/06:00am 12.8 11.1 12.5 98 0.2 S 13 15 7 8 1015.5 1015.5 0.2
28/05:58am 12.8 11.5 12.5 98 0.2 S 11 15 6 8 1015.5 1015.5 0.2
28/05:50am 12.7 11.7 12.4 98 0.2 SSE 9 13 5 7 1015.4 1015.4 0.2
28/05:36am 12.7 11.0 12.4 98 0.2 SSE 13 15 7 8 1015.3 1015.3 0.0
28/05:30am 12.7 11.0 12.4 98 0.2 SSE 13 15 7 8 1015.2 1015.2 0.0
28/05:00am 12.7 11.0 12.4 98 0.2 SSE 13 17 7 9 1014.9 1014.9 0.0
28/04:30am 12.7 11.0 12.4 98 0.2 SE 13 19 7 10 1014.6 1014.6 0.0
28/04:15am 12.6 10.5 12.3 98 0.2 SE 15 19 8 10 1014.4 1014.4 0.0
28/04:00am 12.6 10.1 12.3 98 0.2 SE 17 24 9 13 1014.3 1014.3 0.0
28/03:50am 12.6 10.1 12.4 99 0.1 SE 17 22 9 12 1014.2 1014.2 0.0
28/03:30am 12.5 9.6 12.3 99 0.1 SE 19 26 10 14 1014.1 1014.1 0.0
28/03:02am 12.6 9.6 12.4 99 0.1 SE 20 30 11 16 1014.0 1014.0 0.0
28/03:00am 12.6 9.1 12.3 98 0.2 SE 22 30 12 16 1014.1 1014.1 0.0
28/02:30am 12.8 9.4 12.5 98 0.2 SE 22 28 12 15 1014.1 1014.1 0.0
28/02:13am 12.8 9.8 12.5 98 0.2 SE 20 28 11 15 1014.2 1014.2 0.0
28/02:00am 12.8 9.8 12.5 98 0.2 SSE 20 28 11 15 1014.2 1014.2 0.0
28/01:30am 13.0 10.2 12.7 98 0.2 SE 19 28 10 15 1014.4 1014.4 0.0
28/01:00am 13.2 10.8 12.7 97 0.3 SE 17 20 9 11 1014.5 1014.5 0.0
28/12:30am 13.2 10.8 12.7 97 0.3 SE 17 24 9 13 1014.5 1014.5 0.0
28/12:17am 13.2 10.4 12.7 97 0.3 SE 19 26 10 14 1014.3 1014.3 0.0
28/12:00am 13.3 10.4 12.8 97 0.3 SE 20 26 11 14 1014.2 1014.2 0.0
 
Date/Time
EST
Temp
°C
App
Temp
°C
Dew
Point
°C
Rel
Hum
%
Delta-T
°C
Wind Press
QNH
hPa
Press
MSL
hPa
Rain since
9am
mm
Dir  Spd
km/h
Gust
km/h
Spd
kts
Gust
kts
27/11:58pm 13.3 10.6 12.8 97 0.3 SE 19 26 10 14 1014.2 1014.2 0.0
27/11:30pm 13.6 11.0 13.1 97 0.3 ESE 19 24 10 13 1014.2 1014.2 0.0
27/11:00pm 13.7 11.1 13.2 97 0.3 ESE 19 24 10 13 1014.1 1014.1 0.0
27/10:30pm 13.6 12.6 13.4 99 0.1 ESE 11 20 6 11 1014.0 1014.0 0.0
27/10:00pm 12.9 12.6 12.6 98 0.2 E 6 7 3 4 1013.8 1013.8 0.0
27/09:30pm 12.9 12.3 12.3 96 0.3 E 7 7 4 4 1013.9 1013.9 0.0
27/09:00pm 12.7 12.2 12.2 97 0.3 SE 6 7 3 4 1013.9 1013.9 0.0
27/08:51pm 12.6 11.9 12.1 97 0.3 SE 7 7 4 4 1013.9 1013.9 0.0
27/08:30pm 12.5 11.0 11.9 96 0.3 E 11 13 6 7 1013.7 1013.7 0.0
27/08:15pm 12.8 10.6 12.0 95 0.4 ESE 15 19 8 10 1013.7 1013.7 0.0
27/08:00pm 13.9 11.6 13.0 94 0.5 ESE 17 20 9 11 1013.5 1013.5 0.0
27/07:30pm 14.1 12.8 13.6 97 0.3 ESE 13 19 7 10 1013.0 1013.0 0.0
27/07:00pm 14.1 12.4 13.5 96 0.3 SE 15 20 8 11 1012.6 1012.6 0.0
27/06:30pm 14.2 12.9 13.6 96 0.3 SE 13 17 7 9 1012.1 1012.1 0.0
27/06:00pm 14.5 13.2 13.7 95 0.4 SSE 13 17 7 9 1011.7 1011.7 0.0
27/05:30pm 14.6 12.6 13.8 95 0.4 SSE 17 20 9 11 1011.7 1011.7 0.0
27/05:00pm 14.9 13.3 13.8 93 0.6 SE 15 20 8 11 1011.7 1011.7 0.0
27/04:41pm 15.0 12.9 13.7 92 0.7 SSE 17 22 9 12 1011.5 1011.5 0.0
27/04:30pm 14.9 13.1 13.4 91 0.8 SSE 15 19 8 10 1011.4 1011.4 0.0
27/04:22pm 14.9 12.7 13.3 90 0.9 SSE 17 20 9 11 1011.4 1011.4 0.0
27/04:07pm 15.0 12.4 13.2 89 1.0 SSE 19 24 10 13 1011.2 1011.2 0.0
27/04:00pm 15.1 12.5 13.1 88 1.1 SSE 19 24 10 13 1011.1 1011.1 0.0
27/03:30pm 15.9 13.2 13.0 83 1.6 SSE 19 22 10 12 1010.9 1010.9 0.0
27/03:21pm 16.0 14.1 13.1 83 1.6 SSE 15 22 8 12 1010.9 1010.9 0.0
27/03:04pm 15.7 13.7 12.8 83 1.6 SSE 15 19 8 10 1011.0 1011.0 0.0
27/03:00pm 15.7 13.8 13.0 84 1.5 SSE 15 19 8 10 1011.0 1011.0 0.0
27/02:50pm 15.7 14.1 12.8 83 1.6 S 13 17 7 9 1011.1 1011.1 0.0
27/02:30pm 16.2 14.5 13.5 84 1.5 SW 15 19 8 10 1011.1 1011.1 0.0
27/02:00pm 16.3 15.0 13.8 85 1.4 WNW 13 17 7 9 1011.1 1011.1 0.0
27/01:59pm 15.9 14.2 12.6 81 1.8 WNW 13 17 7 9 1011.1 1011.1 0.0
27/01:30pm 16.1 14.6 13.2 83 1.6 W 13 19 7 10 1011.3 1011.3 0.0
27/01:00pm 15.5 13.6 13.0 85 1.4 WNW 15 19 8 10 1011.7 1011.7 0.0
27/12:30pm 15.6 13.9 13.6 88 1.1 WNW 15 19 8 10 1012.0 1012.0 0.0
27/12:00pm 15.5 15.4 13.2 86 1.3 S 6 9 3 5 1012.2 1012.2 0.0
27/11:30am 14.8 14.1 13.2 90 0.9 SSE 9 13 5 7 1012.4 1012.4 0.0
27/11:00am 15.0 14.0 13.4 90 0.9 ESE 11 15 6 8 1012.5 1012.5 0.0
27/10:30am 14.0 12.2 13.2 95 0.4 SE 15 20 8 11 1012.9 1012.9 0.0
27/10:00am 14.3 11.9 13.7 96 0.3 ESE 19 26 10 14 1012.9 1012.9 0.0
27/09:30am 14.1 12.7 13.3 95 0.4 SSE 13 17 7 9 1013.0 1013.0 0.0
27/09:00am 13.2 13.2 12.3 94 0.5 SW 4 7 2 4 1013.1 1013.1 1.6
27/08:30am 12.6 13.3 12.3 98 0.2 CALM 0 6 0 3 1013.2 1013.2 1.6
27/08:00am 11.9 12.4 11.7 99 0.1 CALM 0 0 0 0 1013.4 1013.4 1.6
27/07:30am 11.4 10.7 11.4 100 0.0 WSW 6 7 3 4 1013.3 1013.3 1.6
27/07:00am 10.8 11.1 10.8 100 0.0 CALM 0 0 0 0 1013.1 1013.1 1.6
27/06:30am 10.1 9.0 10.1 100 0.0 NNW 6 9 3 5 1013.0 1013.0 1.6
27/06:00am 10.2 10.3 10.2 100 0.0 CALM 0 7 0 4 1012.7 1012.7 1.6
27/05:30am 10.2 9.0 10.2 100 0.0 SW 7 7 4 4 1012.4 1012.4 1.6
27/05:24am 10.1 8.8 10.1 100 0.0 SW 7 9 4 5 1012.5 1012.5 1.6
27/05:00am 9.5 8.1 9.5 100 0.0 SW 7 7 4 4 1012.3 1012.3 1.6
27/04:30am 9.4 8.0 9.4 100 0.0 WNW 7 9 4 5 1012.4 1012.4 1.6
27/04:00am 9.6 7.8 9.6 100 0.0 NW 9 11 5 6 1012.4 1012.4 1.6
27/03:30am 9.5 8.1 9.4 99 0.0 NNW 7 9 4 5 1012.5 1012.5 1.6
27/03:00am 9.4 8.5 9.3 99 0.0 NNE 4 6 2 3 1012.6 1012.6 1.6
27/02:30am 9.5 8.1 9.4 99 0.0 N 7 9 4 5 1012.9 1012.9 1.6
27/02:12am 9.4 8.1 9.3 99 0.0 WNW 6 9 3 5 1012.9 1012.9 1.6
27/02:00am 9.6 9.1 9.5 99 0.0 NNW 2 7 1 4 1012.9 1012.9 1.6
27/01:56am 9.2 9.0 9.1 99 0.0 CALM 0 0 0 0 1012.9 1012.9 1.6
27/01:48am 9.1 8.9 9.0 99 0.0 CALM 0 0 0 0 1012.9 1012.9 1.6
27/01:33am 10.0 10.0 9.9 99 0.1 CALM 0 0 0 0 1013.1 1013.1 1.6
27/01:30am 10.1 10.1 9.8 98 0.2 CALM 0 0 0 0 1013.2 1013.2 1.6
27/01:00am 10.4 10.5 10.1 98 0.2 CALM 0 0 0 0 1013.6 1013.6 1.6
27/12:30am 10.4 10.5 10.1 98 0.2 CALM 0 0 0 0 1013.5 1013.5 1.6
27/12:00am 10.5 10.6 10.2 98 0.2 CALM 0 0 0 0 1013.7 1013.7 1.6
 
Date/Time
EST
Temp
°C
App
Temp
°C
Dew
Point
°C
Rel
Hum
%
Delta-T
°C
Wind Press
QNH
hPa
Press
MSL
hPa
Rain since
9am
mm
Dir  Spd
km/h
Gust
km/h
Spd
kts
Gust
kts
26/11:30pm 10.4 10.4 9.9 97 0.3 CALM 0 0 0 0 1013.8 1013.8 1.6
26/11:00pm 10.9 9.6 10.1 95 0.4 N 7 11 4 6 1014.0 1014.0 1.6
26/10:30pm 11.0 9.8 10.2 95 0.4 N 7 11 4 6 1014.0 1014.0 1.4
26/10:00pm 11.0 9.5 10.4 96 0.3 NE 9 13 5 7 1014.0 1014.0 1.4
26/09:30pm 10.7 9.6 9.9 95 0.4 NNE 6 7 3 4 1014.1 1014.1 1.4
26/09:00pm 11.1 9.9 10.2 94 0.5 NE 7 9 4 5 1013.9 1013.9 1.4
26/08:30pm 11.7 10.8 10.6 93 0.6 NNE 6 7 3 4 1014.3 1014.3 1.4
26/08:00pm 11.9 11.0 10.8 93 0.6 NNE 6 7 3 4 1014.1 1014.1 1.4
26/07:30pm 12.3 11.4 11.2 93 0.6 NNE 7 9 4 5 1014.0 1014.0 1.4
26/07:00pm 12.4 11.6 11.8 96 0.3 E 7 9 4 5 1013.8 1013.8 1.4
26/06:30pm 12.7 11.8 11.4 92 0.7 NE 7 9 4 5 1013.5 1013.5 1.4
26/06:00pm 12.9 11.6 11.1 89 0.9 NNE 9 11 5 6 1013.3 1013.3 1.4
26/05:30pm 13.3 11.7 11.4 88 1.0 N 11 15 6 8 1013.5 1013.5 1.2
26/05:00pm 13.8 12.9 11.5 86 1.2 NNE 7 9 4 5 1013.3 1013.3 1.0
26/04:30pm 14.0 12.6 11.0 82 1.6 N 9 11 5 6 1013.3 1013.3 0.6
26/04:00pm 14.8 13.1 10.0 73 2.5 NNW 9 11 5 6 1013.3 1013.3 0.4
26/03:30pm 15.5 14.3 9.6 68 3.1 NW 6 9 3 5 1013.2 1013.2 0.2
26/03:00pm 15.7 13.1 9.4 66 3.3 NNW 13 22 7 12 1013.3 1013.3 0.0
26/02:30pm 16.7 15.3 9.4 62 3.8 NNE 7 11 4 6 1013.4 1013.4 0.0
26/02:00pm 17.0 15.1 8.9 59 4.2 NNE 9 13 5 7 1013.4 1013.4 0.0
26/01:30pm 17.5 15.5 8.6 56 4.6 NNE 9 15 5 8 1013.6 1013.6 0.0
26/01:00pm 17.6 15.9 10.0 61 4.0 NNE 9 13 5 7 1013.8 1013.8 0.0
26/12:30pm 18.4 17.3 11.9 66 3.6 NE 9 13 5 7 1014.2 1014.2 0.0
26/12:00pm 16.2 14.1 9.8 66 3.3 NNE 11 15 6 8 1014.5 1014.5 0.0
26/11:30am 15.8 15.3 10.6 71 2.8 N 4 7 2 4 1015.0 1015.0 0.0
26/11:00am 15.4 14.5 10.8 74 2.4 N 6 9 3 5 1015.7 1015.7 0.0
26/10:30am 14.1 12.9 9.5 74 2.4 NNW 6 7 3 4 1015.9 1015.9 0.0
26/10:00am 13.4 11.7 9.8 79 1.8 NNW 9 13 5 7 1016.4 1016.4 0.0
26/09:30am 11.8 8.8 9.2 84 1.3 WNW 15 20 8 11 1016.8 1016.8 0.0
26/09:00am 10.7 9.2 9.0 89 0.8 NW 7 11 4 6 1016.8 1016.8 0.0
26/08:30am 9.9 7.9 8.7 92 0.6 NW 9 13 5 7 1016.9 1016.9 0.0
26/08:00am 9.2 7.6 8.1 93 0.5 NNW 6 7 3 4 1016.8 1016.8 0.0
26/07:30am 8.4 6.4 7.3 93 0.5 NW 7 9 4 5 1016.7 1016.7 0.0
26/07:00am 7.5 5.1 6.9 96 0.3 NW 9 13 5 7 1016.8 1016.8 0.0
26/06:30am 7.0 4.5 6.7 98 0.1 NNW 9 11 5 6 1016.7 1016.7 0.0
26/06:00am 6.6 4.5 6.5 99 0.0 N 7 9 4 5 1016.4 1016.4 0.0
26/05:30am 6.2 3.6 6.1 99 0.0 N 9 9 5 5 1016.4 1016.4 0.0
26/05:00am 6.8 6.0 6.7 99 0.0 CALM 0 0 0 0 1016.4 1016.4 0.0
26/04:30am 6.5 4.9 6.2 98 0.1 W 4 6 2 3 1016.3 1016.3 0.0
26/04:00am 6.3 5.0 6.0 98 0.1 W 2 6 1 3 1016.4 1016.4 0.0
26/03:30am 6.6 4.6 6.2 97 0.2 W 6 7 3 4 1016.5 1016.5 0.0
26/03:00am 6.9 4.0 6.5 97 0.2 NW 11 15 6 8 1016.6 1016.6 0.0
26/02:30am 6.3 2.9 6.0 98 0.1 NW 13 15 7 8 1016.9 1016.9 0.0
26/02:00am 6.2 3.2 5.9 98 0.1 NW 11 13 6 7 1017.1 1017.1 0.0
26/01:30am 6.8 4.3 6.7 99 0.0 NNW 9 9 5 5 1017.4 1017.4 0.0
26/01:00am 6.2 5.2 5.8 97 0.2 CALM 0 0 0 0 1017.5 1017.5 0.0
26/12:30am 6.9 6.1 6.6 98 0.1 CALM 0 0 0 0 1017.7 1017.7 0.0
26/12:00am 6.0 5.0 5.4 96 0.3 CALM 0 0 0 0 1017.6 1017.6 0.0
 
Date/Time
EST
Temp
°C
App
Temp
°C
Dew
Point
°C
Rel
Hum
%
Delta-T
°C
Wind Press
QNH
hPa
Press
MSL
hPa
Rain since
9am
mm
Dir  Spd
km/h
Gust
km/h
Spd
kts
Gust
kts
25/11:30pm 6.6 5.7 5.9 95 0.3 CALM 0 0 0 0 1017.8 1017.8 0.0
25/11:00pm 6.6 5.5 5.1 90 0.7 CALM 0 0 0 0 1018.0 1018.0 0.0
25/10:30pm 8.1 6.0 6.6 90 0.7 NE 7 9 4 5 1017.8 1017.8 0.0
25/10:00pm 8.7 6.2 6.7 87 0.9 NE 9 13 5 7 1017.7 1017.7 0.0
25/09:30pm 8.9 5.7 6.9 87 0.9 NE 13 15 7 8 1017.5 1017.5 0.0
25/09:00pm 9.2 6.5 7.3 88 0.9 NE 11 13 6 7 1017.5 1017.5 0.0
25/08:30pm 9.1 6.7 6.9 86 1.0 NE 9 11 5 6 1017.5 1017.5 0.0
25/08:00pm 8.8 6.4 7.1 89 0.8 ESE 9 9 5 5 1017.6 1017.6 0.0
25/07:30pm 9.1 6.2 6.5 84 1.2 ESE 11 13 6 7 1017.4 1017.4 0.0
25/07:00pm 9.0 6.1 6.4 84 1.2 ESE 11 13 6 7 1016.9 1016.9 0.0
25/06:30pm 9.9 7.1 7.0 82 1.4 E 11 13 6 7 1016.4 1016.4 0.0
25/06:00pm 10.8 7.7 7.3 79 1.7 E 13 15 7 8 1016.1 1016.1 0.0
25/05:30pm 12.7 9.6 7.4 70 2.6 SE 13 15 7 8 1015.9 1015.9 0.0
25/05:00pm 13.9 10.6 7.9 67 3.0 ESE 15 19 8 10 1015.6 1015.6 0.0
25/04:30pm 15.0 12.2 8.5 65 3.3 ESE 13 17 7 9 1015.4 1015.4 0.0
25/04:00pm 14.8 11.6 8.3 65 3.3 SE 15 20 8 11 1015.2 1015.2 0.0
25/03:30pm 16.6 12.7 7.3 54 4.6 SW 17 24 9 13 1015.3 1015.3 0.0
25/03:00pm 16.8 12.4 6.6 51 5.0 WSW 19 30 10 16 1015.3 1015.3 0.0
25/02:30pm 16.5 11.9 5.8 49 5.2 SW 19 30 10 16 1015.1 1015.1 0.0
25/02:00pm 16.4 12.1 7.1 54 4.6 WSW 19 28 10 15 1015.0 1015.0 0.0
25/01:30pm 16.1 11.5 6.3 52 4.8 WSW 20 30 11 16 1015.1 1015.1 0.0
25/01:00pm 15.6 11.0 5.5 51 4.8 SW 19 26 10 14 1015.0 1015.0 0.0
25/12:30pm 15.6 12.8 8.4 62 3.6 WSW 13 20 7 11 1015.1 1015.1 0.0
25/12:00pm 15.1 11.7 5.9 54 4.4 WNW 13 22 7 12 1015.5 1015.5 0.0
25/11:30am 14.9 11.9 7.5 61 3.7 WNW 13 20 7 11 1015.7 1015.7 0.0
25/11:00am 14.4 11.6 8.4 67 3.0 WNW 13 20 7 11 1015.8 1015.8 0.0

Other formats

Comma delimited format used in spreadsheet applications
http://www.bom.gov.au/fwo/IDV60801/IDV60801.95907.axf

JavaScript Object Notation format (JSON) in row-major order
http://www.bom.gov.au/fwo/IDV60801/IDV60801.95907.json

Data quality

Most of these data are generated automatically and are frequently updated. Quality checks on data are not normally performed. It is possible for incorrect values to appear. Refer to information at About Latest Weather Observations and please check the disclaimer before using these data.